sensor_id;sensor_type;location;lat;lon;timestamp;P1;durP1;ratioP1;P2;durP2;ratioP2
14235;SDS011;7202;50.718;7.072;2023-04-30T00:00:08;45.17;;;30.80;;
14235;SDS011;7202;50.718;7.072;2023-04-30T00:02:38;46.28;;;30.88;;
14235;SDS011;7202;50.718;7.072;2023-04-30T00:05:07;41.67;;;29.50;;
14235;SDS011;7202;50.718;7.072;2023-04-30T00:07:36;40.88;;;30.13;;
14235;SDS011;7202;50.718;7.072;2023-04-30T00:10:08;44.25;;;31.05;;
14235;SDS011;7202;50.718;7.072;2023-04-30T00:12:38;44.90;;;32.40;;
14235;SDS011;7202;50.718;7.072;2023-04-30T00:15:07;46.30;;;31.02;;
14235;SDS011;7202;50.718;7.072;2023-04-30T00:17:37;45.22;;;30.75;;
14235;SDS011;7202;50.718;7.072;2023-04-30T00:20:06;44.30;;;30.67;;
14235;SDS011;7202;50.718;7.072;2023-04-30T00:22:35;39.47;;;28.15;;
14235;SDS011;7202;50.718;7.072;2023-04-30T00:25:04;47.53;;;31.52;;
14235;SDS011;7202;50.718;7.072;2023-04-30T00:27:35;47.38;;;31.27;;
14235;SDS011;7202;50.718;7.072;2023-04-30T00:30:07;49.13;;;33.83;;
14235;SDS011;7202;50.718;7.072;2023-04-30T00:32:36;47.42;;;32.25;;
14235;SDS011;7202;50.718;7.072;2023-04-30T00:35:05;55.10;;;34.90;;
14235;SDS011;7202;50.718;7.072;2023-04-30T00:37:33;50.20;;;35.13;;
14235;SDS011;7202;50.718;7.072;2023-04-30T00:40:02;50.47;;;34.22;;
14235;SDS011;7202;50.718;7.072;2023-04-30T00:42:31;54.97;;;33.72;;
14235;SDS011;7202;50.718;7.072;2023-04-30T00:45:01;51.60;;;32.90;;
14235;SDS011;7202;50.718;7.072;2023-04-30T00:47:30;51.88;;;32.55;;
14235;SDS011;7202;50.718;7.072;2023-04-30T00:49:59;45.83;;;32.75;;
14235;SDS011;7202;50.718;7.072;2023-04-30T00:52:28;48.83;;;34.13;;
14235;SDS011;7202;50.718;7.072;2023-04-30T00:54:57;48.13;;;31.58;;
14235;SDS011;7202;50.718;7.072;2023-04-30T00:57:26;49.97;;;32.38;;
14235;SDS011;7202;50.718;7.072;2023-04-30T00:59:55;47.45;;;32.42;;
14235;SDS011;7202;50.718;7.072;2023-04-30T01:02:25;50.22;;;33.67;;
14235;SDS011;7202;50.718;7.072;2023-04-30T01:04:54;50.80;;;32.97;;
14235;SDS011;7202;50.718;7.072;2023-04-30T01:07:24;47.65;;;32.00;;
14235;SDS011;7202;50.718;7.072;2023-04-30T01:09:54;44.45;;;30.33;;
14235;SDS011;7202;50.718;7.072;2023-04-30T01:12:25;48.63;;;32.15;;
14235;SDS011;7202;50.718;7.072;2023-04-30T01:15:03;46.65;;;32.40;;
14235;SDS011;7202;50.718;7.072;2023-04-30T01:17:43;53.25;;;35.72;;
14235;SDS011;7202;50.718;7.072;2023-04-30T01:20:15;53.25;;;37.22;;
14235;SDS011;7202;50.718;7.072;2023-04-30T01:22:45;57.35;;;37.83;;
14235;SDS011;7202;50.718;7.072;2023-04-30T01:25:25;52.25;;;34.75;;
14235;SDS011;7202;50.718;7.072;2023-04-30T01:28:08;47.80;;;33.58;;
14235;SDS011;7202;50.718;7.072;2023-04-30T01:30:38;50.63;;;31.90;;
14235;SDS011;7202;50.718;7.072;2023-04-30T01:33:10;46.25;;;32.00;;
14235;SDS011;7202;50.718;7.072;2023-04-30T01:35:43;48.92;;;31.70;;
14235;SDS011;7202;50.718;7.072;2023-04-30T01:38:32;47.50;;;32.13;;
14235;SDS011;7202;50.718;7.072;2023-04-30T01:41:12;45.15;;;30.63;;
14235;SDS011;7202;50.718;7.072;2023-04-30T01:43:57;50.20;;;31.75;;
14235;SDS011;7202;50.718;7.072;2023-04-30T01:46:33;51.20;;;32.10;;
14235;SDS011;7202;50.718;7.072;2023-04-30T01:49:03;46.05;;;30.77;;
14235;SDS011;7202;50.718;7.072;2023-04-30T01:51:42;50.40;;;32.30;;
14235;SDS011;7202;50.718;7.072;2023-04-30T01:54:15;51.78;;;32.03;;
14235;SDS011;7202;50.718;7.072;2023-04-30T01:56:52;39.90;;;27.60;;
14235;SDS011;7202;50.718;7.072;2023-04-30T01:59:31;47.08;;;31.60;;
14235;SDS011;7202;50.718;7.072;2023-04-30T02:02:02;45.83;;;30.17;;
14235;SDS011;7202;50.718;7.072;2023-04-30T02:04:32;48.65;;;31.23;;
14235;SDS011;7202;50.718;7.072;2023-04-30T02:07:02;44.58;;;29.48;;
14235;SDS011;7202;50.718;7.072;2023-04-30T02:09:31;42.35;;;29.55;;
14235;SDS011;7202;50.718;7.072;2023-04-30T02:11:59;45.75;;;31.23;;
14235;SDS011;7202;50.718;7.072;2023-04-30T02:14:31;47.83;;;32.13;;
14235;SDS011;7202;50.718;7.072;2023-04-30T02:16:59;49.17;;;31.88;;
14235;SDS011;7202;50.718;7.072;2023-04-30T02:19:28;47.60;;;32.30;;
14235;SDS011;7202;50.718;7.072;2023-04-30T02:21:58;50.88;;;33.83;;
14235;SDS011;7202;50.718;7.072;2023-04-30T02:24:26;49.90;;;31.98;;
14235;SDS011;7202;50.718;7.072;2023-04-30T02:26:55;47.72;;;32.70;;
14235;SDS011;7202;50.718;7.072;2023-04-30T02:29:24;49.40;;;32.78;;
14235;SDS011;7202;50.718;7.072;2023-04-30T02:31:56;51.28;;;33.25;;
14235;SDS011;7202;50.718;7.072;2023-04-30T02:34:25;59.53;;;32.05;;
14235;SDS011;7202;50.718;7.072;2023-04-30T02:36:54;44.95;;;31.13;;
14235;SDS011;7202;50.718;7.072;2023-04-30T02:39:22;45.78;;;30.67;;
14235;SDS011;7202;50.718;7.072;2023-04-30T02:41:51;44.65;;;30.38;;
14235;SDS011;7202;50.718;7.072;2023-04-30T02:44:20;46.45;;;29.88;;
14235;SDS011;7202;50.718;7.072;2023-04-30T02:46:48;40.72;;;29.42;;
14235;SDS011;7202;50.718;7.072;2023-04-30T02:49:18;45.88;;;30.10;;
14235;SDS011;7202;50.718;7.072;2023-04-30T02:51:47;46.67;;;30.20;;
14235;SDS011;7202;50.718;7.072;2023-04-30T02:54:15;44.13;;;28.45;;
14235;SDS011;7202;50.718;7.072;2023-04-30T02:56:49;46.28;;;28.45;;
14235;SDS011;7202;50.718;7.072;2023-04-30T02:59:17;43.97;;;29.25;;
14235;SDS011;7202;50.718;7.072;2023-04-30T03:01:46;45.05;;;29.42;;
14235;SDS011;7202;50.718;7.072;2023-04-30T03:04:15;44.67;;;28.33;;
14235;SDS011;7202;50.718;7.072;2023-04-30T03:06:45;44.83;;;29.02;;
14235;SDS011;7202;50.718;7.072;2023-04-30T03:09:13;40.60;;;27.58;;
14235;SDS011;7202;50.718;7.072;2023-04-30T03:11:42;44.40;;;29.08;;
14235;SDS011;7202;50.718;7.072;2023-04-30T03:14:11;42.67;;;27.75;;
14235;SDS011;7202;50.718;7.072;2023-04-30T03:16:40;43.20;;;28.42;;
14235;SDS011;7202;50.718;7.072;2023-04-30T03:19:08;44.60;;;28.90;;
14235;SDS011;7202;50.718;7.072;2023-04-30T03:21:37;43.92;;;29.02;;
14235;SDS011;7202;50.718;7.072;2023-04-30T03:24:07;41.63;;;27.52;;
14235;SDS011;7202;50.718;7.072;2023-04-30T03:26:35;45.65;;;29.05;;
14235;SDS011;7202;50.718;7.072;2023-04-30T03:29:04;46.40;;;29.23;;
14235;SDS011;7202;50.718;7.072;2023-04-30T03:31:33;42.33;;;28.35;;
14235;SDS011;7202;50.718;7.072;2023-04-30T03:34:01;43.45;;;27.50;;
14235;SDS011;7202;50.718;7.072;2023-04-30T03:36:30;44.78;;;28.15;;
14235;SDS011;7202;50.718;7.072;2023-04-30T03:38:59;42.67;;;27.40;;
14235;SDS011;7202;50.718;7.072;2023-04-30T03:41:29;41.42;;;28.02;;
14235;SDS011;7202;50.718;7.072;2023-04-30T03:43:57;43.90;;;29.40;;
14235;SDS011;7202;50.718;7.072;2023-04-30T03:46:26;42.75;;;28.02;;
14235;SDS011;7202;50.718;7.072;2023-04-30T03:48:55;44.38;;;28.95;;
14235;SDS011;7202;50.718;7.072;2023-04-30T03:51:24;42.08;;;28.67;;
14235;SDS011;7202;50.718;7.072;2023-04-30T03:53:54;45.55;;;30.17;;
14235;SDS011;7202;50.718;7.072;2023-04-30T03:56:23;43.28;;;28.05;;
14235;SDS011;7202;50.718;7.072;2023-04-30T03:58:54;41.35;;;27.60;;
14235;SDS011;7202;50.718;7.072;2023-04-30T04:01:22;40.63;;;26.98;;
14235;SDS011;7202;50.718;7.072;2023-04-30T04:03:51;46.42;;;28.58;;
14235;SDS011;7202;50.718;7.072;2023-04-30T04:06:21;44.53;;;29.00;;
14235;SDS011;7202;50.718;7.072;2023-04-30T04:08:49;46.40;;;29.38;;
14235;SDS011;7202;50.718;7.072;2023-04-30T04:11:18;44.85;;;29.00;;
14235;SDS011;7202;50.718;7.072;2023-04-30T04:13:47;43.35;;;28.52;;
14235;SDS011;7202;50.718;7.072;2023-04-30T04:16:17;43.83;;;29.02;;
14235;SDS011;7202;50.718;7.072;2023-04-30T04:18:46;47.53;;;29.15;;
14235;SDS011;7202;50.718;7.072;2023-04-30T04:21:15;44.30;;;28.52;;
14235;SDS011;7202;50.718;7.072;2023-04-30T04:23:44;43.60;;;29.30;;
14235;SDS011;7202;50.718;7.072;2023-04-30T04:26:13;45.00;;;29.65;;
14235;SDS011;7202;50.718;7.072;2023-04-30T04:28:42;43.47;;;28.92;;
14235;SDS011;7202;50.718;7.072;2023-04-30T04:31:11;43.28;;;28.90;;
14235;SDS011;7202;50.718;7.072;2023-04-30T04:33:41;43.78;;;28.25;;
14235;SDS011;7202;50.718;7.072;2023-04-30T04:36:09;43.28;;;28.83;;
14235;SDS011;7202;50.718;7.072;2023-04-30T04:38:38;46.03;;;29.30;;
14235;SDS011;7202;50.718;7.072;2023-04-30T04:41:07;45.45;;;29.92;;
14235;SDS011;7202;50.718;7.072;2023-04-30T04:43:35;48.40;;;29.20;;
14235;SDS011;7202;50.718;7.072;2023-04-30T04:46:04;45.88;;;29.02;;
14235;SDS011;7202;50.718;7.072;2023-04-30T04:48:36;43.05;;;27.73;;
14235;SDS011;7202;50.718;7.072;2023-04-30T04:51:06;44.55;;;28.00;;
14235;SDS011;7202;50.718;7.072;2023-04-30T04:53:35;42.83;;;27.13;;
14235;SDS011;7202;50.718;7.072;2023-04-30T04:56:06;42.70;;;28.13;;
14235;SDS011;7202;50.718;7.072;2023-04-30T04:58:35;47.30;;;28.25;;
14235;SDS011;7202;50.718;7.072;2023-04-30T05:01:04;41.78;;;28.40;;
14235;SDS011;7202;50.718;7.072;2023-04-30T05:03:33;43.78;;;27.60;;
14235;SDS011;7202;50.718;7.072;2023-04-30T05:06:03;46.85;;;29.88;;
14235;SDS011;7202;50.718;7.072;2023-04-30T05:08:33;43.97;;;29.90;;
14235;SDS011;7202;50.718;7.072;2023-04-30T05:11:02;47.13;;;30.58;;
14235;SDS011;7202;50.718;7.072;2023-04-30T05:13:30;44.95;;;29.25;;
14235;SDS011;7202;50.718;7.072;2023-04-30T05:15:59;41.53;;;28.45;;
14235;SDS011;7202;50.718;7.072;2023-04-30T05:18:28;46.33;;;29.45;;
14235;SDS011;7202;50.718;7.072;2023-04-30T05:20:57;47.72;;;31.17;;
14235;SDS011;7202;50.718;7.072;2023-04-30T05:23:25;51.10;;;31.42;;
14235;SDS011;7202;50.718;7.072;2023-04-30T05:25:56;47.50;;;29.30;;
14235;SDS011;7202;50.718;7.072;2023-04-30T05:28:25;56.47;;;34.03;;
14235;SDS011;7202;50.718;7.072;2023-04-30T05:30:53;60.92;;;35.22;;
14235;SDS011;7202;50.718;7.072;2023-04-30T05:33:22;64.85;;;38.25;;
14235;SDS011;7202;50.718;7.072;2023-04-30T05:35:50;59.42;;;36.17;;
14235;SDS011;7202;50.718;7.072;2023-04-30T05:38:19;57.45;;;36.25;;
14235;SDS011;7202;50.718;7.072;2023-04-30T05:40:47;69.00;;;37.08;;
14235;SDS011;7202;50.718;7.072;2023-04-30T05:43:17;69.93;;;39.70;;
14235;SDS011;7202;50.718;7.072;2023-04-30T05:45:46;64.15;;;37.35;;
14235;SDS011;7202;50.718;7.072;2023-04-30T05:48:15;69.25;;;39.28;;
14235;SDS011;7202;50.718;7.072;2023-04-30T05:50:43;65.40;;;39.70;;
14235;SDS011;7202;50.718;7.072;2023-04-30T05:53:12;60.53;;;36.65;;
14235;SDS011;7202;50.718;7.072;2023-04-30T05:55:41;82.65;;;41.70;;
14235;SDS011;7202;50.718;7.072;2023-04-30T05:58:09;74.63;;;39.80;;
14235;SDS011;7202;50.718;7.072;2023-04-30T06:00:39;67.05;;;39.25;;
14235;SDS011;7202;50.718;7.072;2023-04-30T06:03:08;68.28;;;38.60;;
14235;SDS011;7202;50.718;7.072;2023-04-30T06:05:37;67.60;;;37.70;;
14235;SDS011;7202;50.718;7.072;2023-04-30T06:08:07;62.78;;;38.17;;
14235;SDS011;7202;50.718;7.072;2023-04-30T06:10:36;76.25;;;39.97;;
14235;SDS011;7202;50.718;7.072;2023-04-30T06:13:05;76.35;;;41.65;;
14235;SDS011;7202;50.718;7.072;2023-04-30T06:15:33;67.72;;;37.33;;
14235;SDS011;7202;50.718;7.072;2023-04-30T06:18:03;59.35;;;35.55;;
14235;SDS011;7202;50.718;7.072;2023-04-30T06:20:32;58.83;;;35.83;;
14235;SDS011;7202;50.718;7.072;2023-04-30T06:23:01;57.72;;;34.75;;
14235;SDS011;7202;50.718;7.072;2023-04-30T06:25:30;61.40;;;35.50;;
14235;SDS011;7202;50.718;7.072;2023-04-30T06:27:58;60.88;;;35.50;;
14235;SDS011;7202;50.718;7.072;2023-04-30T06:30:27;53.83;;;34.22;;
14235;SDS011;7202;50.718;7.072;2023-04-30T06:32:57;58.05;;;36.00;;
14235;SDS011;7202;50.718;7.072;2023-04-30T06:35:27;50.60;;;33.03;;
14235;SDS011;7202;50.718;7.072;2023-04-30T06:37:56;51.83;;;33.90;;
14235;SDS011;7202;50.718;7.072;2023-04-30T06:40:24;59.30;;;36.20;;
14235;SDS011;7202;50.718;7.072;2023-04-30T06:42:53;56.03;;;34.78;;
14235;SDS011;7202;50.718;7.072;2023-04-30T06:45:23;66.60;;;39.60;;
14235;SDS011;7202;50.718;7.072;2023-04-30T06:47:51;74.22;;;37.38;;
14235;SDS011;7202;50.718;7.072;2023-04-30T06:50:20;53.20;;;35.28;;
14235;SDS011;7202;50.718;7.072;2023-04-30T06:52:50;61.63;;;36.40;;
14235;SDS011;7202;50.718;7.072;2023-04-30T06:55:19;54.05;;;35.05;;
14235;SDS011;7202;50.718;7.072;2023-04-30T06:57:47;57.13;;;35.00;;
14235;SDS011;7202;50.718;7.072;2023-04-30T07:00:16;61.20;;;37.40;;
14235;SDS011;7202;50.718;7.072;2023-04-30T07:02:44;56.97;;;36.38;;
14235;SDS011;7202;50.718;7.072;2023-04-30T07:05:18;56.47;;;36.15;;
14235;SDS011;7202;50.718;7.072;2023-04-30T07:07:46;61.60;;;37.13;;
14235;SDS011;7202;50.718;7.072;2023-04-30T07:10:17;62.45;;;37.75;;
14235;SDS011;7202;50.718;7.072;2023-04-30T07:12:46;63.95;;;37.38;;
14235;SDS011;7202;50.718;7.072;2023-04-30T07:15:14;60.60;;;37.95;;
14235;SDS011;7202;50.718;7.072;2023-04-30T07:17:43;55.45;;;35.15;;
14235;SDS011;7202;50.718;7.072;2023-04-30T07:20:12;60.15;;;37.00;;
14235;SDS011;7202;50.718;7.072;2023-04-30T07:22:41;61.58;;;39.25;;
14235;SDS011;7202;50.718;7.072;2023-04-30T07:25:12;62.00;;;36.88;;
14235;SDS011;7202;50.718;7.072;2023-04-30T07:27:42;59.35;;;36.17;;
14235;SDS011;7202;50.718;7.072;2023-04-30T07:30:13;57.10;;;37.22;;
14235;SDS011;7202;50.718;7.072;2023-04-30T07:32:42;54.15;;;35.35;;
14235;SDS011;7202;50.718;7.072;2023-04-30T07:35:11;60.33;;;37.47;;
14235;SDS011;7202;50.718;7.072;2023-04-30T07:37:40;60.88;;;37.47;;
14235;SDS011;7202;50.718;7.072;2023-04-30T07:40:10;53.55;;;36.80;;
14235;SDS011;7202;50.718;7.072;2023-04-30T07:42:56;52.47;;;35.45;;
14235;SDS011;7202;50.718;7.072;2023-04-30T07:45:24;54.67;;;35.35;;
14235;SDS011;7202;50.718;7.072;2023-04-30T07:47:53;57.10;;;36.80;;
14235;SDS011;7202;50.718;7.072;2023-04-30T07:50:22;51.88;;;34.88;;
14235;SDS011;7202;50.718;7.072;2023-04-30T07:52:50;52.72;;;34.30;;
14235;SDS011;7202;50.718;7.072;2023-04-30T07:55:19;52.00;;;34.75;;
14235;SDS011;7202;50.718;7.072;2023-04-30T07:57:48;49.05;;;33.22;;
14235;SDS011;7202;50.718;7.072;2023-04-30T08:00:18;50.00;;;32.75;;
14235;SDS011;7202;50.718;7.072;2023-04-30T08:02:47;50.58;;;32.78;;
14235;SDS011;7202;50.718;7.072;2023-04-30T08:05:16;43.28;;;30.05;;
14235;SDS011;7202;50.718;7.072;2023-04-30T08:07:45;46.13;;;31.35;;
14235;SDS011;7202;50.718;7.072;2023-04-30T08:10:14;43.03;;;30.75;;
14235;SDS011;7202;50.718;7.072;2023-04-30T08:12:42;41.28;;;29.70;;
14235;SDS011;7202;50.718;7.072;2023-04-30T08:15:11;43.40;;;30.33;;
14235;SDS011;7202;50.718;7.072;2023-04-30T08:17:41;40.10;;;30.02;;
14235;SDS011;7202;50.718;7.072;2023-04-30T08:20:11;37.40;;;28.08;;
14235;SDS011;7202;50.718;7.072;2023-04-30T08:22:39;36.80;;;27.63;;
14235;SDS011;7202;50.718;7.072;2023-04-30T08:25:09;36.50;;;26.60;;
14235;SDS011;7202;50.718;7.072;2023-04-30T08:27:38;33.90;;;25.63;;
14235;SDS011;7202;50.718;7.072;2023-04-30T08:30:07;34.53;;;25.75;;
14235;SDS011;7202;50.718;7.072;2023-04-30T08:32:36;33.45;;;24.65;;
14235;SDS011;7202;50.718;7.072;2023-04-30T08:35:08;35.85;;;25.25;;
14235;SDS011;7202;50.718;7.072;2023-04-30T08:37:37;31.20;;;25.02;;
14235;SDS011;7202;50.718;7.072;2023-04-30T08:40:06;32.95;;;25.15;;
14235;SDS011;7202;50.718;7.072;2023-04-30T08:42:38;32.67;;;24.08;;
14235;SDS011;7202;50.718;7.072;2023-04-30T08:45:11;32.33;;;23.73;;
14235;SDS011;7202;50.718;7.072;2023-04-30T08:47:40;32.22;;;22.77;;
14235;SDS011;7202;50.718;7.072;2023-04-30T08:50:11;27.48;;;19.73;;
14235;SDS011;7202;50.718;7.072;2023-04-30T08:52:39;25.23;;;18.73;;
14235;SDS011;7202;50.718;7.072;2023-04-30T08:55:10;24.60;;;19.48;;
14235;SDS011;7202;50.718;7.072;2023-04-30T08:57:39;23.38;;;17.35;;
14235;SDS011;7202;50.718;7.072;2023-04-30T09:00:08;21.45;;;17.38;;
14235;SDS011;7202;50.718;7.072;2023-04-30T09:02:38;23.67;;;18.00;;
14235;SDS011;7202;50.718;7.072;2023-04-30T09:05:08;17.90;;;13.60;;
14235;SDS011;7202;50.718;7.072;2023-04-30T09:07:41;19.02;;;14.50;;
14235;SDS011;7202;50.718;7.072;2023-04-30T09:10:31;16.98;;;13.70;;
14235;SDS011;7202;50.718;7.072;2023-04-30T09:13:01;18.73;;;13.40;;
14235;SDS011;7202;50.718;7.072;2023-04-30T09:15:30;15.98;;;12.60;;
14235;SDS011;7202;50.718;7.072;2023-04-30T09:18:07;14.23;;;11.63;;
14235;SDS011;7202;50.718;7.072;2023-04-30T09:20:52;14.65;;;12.25;;
14235;SDS011;7202;50.718;7.072;2023-04-30T09:23:23;17.85;;;13.15;;
14235;SDS011;7202;50.718;7.072;2023-04-30T09:25:52;17.27;;;13.30;;
14235;SDS011;7202;50.718;7.072;2023-04-30T09:28:21;14.25;;;11.20;;
14235;SDS011;7202;50.718;7.072;2023-04-30T09:30:52;13.70;;;10.40;;
14235;SDS011;7202;50.718;7.072;2023-04-30T09:33:22;11.85;;;10.43;;
14235;SDS011;7202;50.718;7.072;2023-04-30T09:35:52;12.43;;;10.50;;
14235;SDS011;7202;50.718;7.072;2023-04-30T09:38:24;11.65;;;9.48;;
14235;SDS011;7202;50.718;7.072;2023-04-30T09:40:54;13.00;;;9.38;;
14235;SDS011;7202;50.718;7.072;2023-04-30T09:43:24;11.95;;;9.57;;
14235;SDS011;7202;50.718;7.072;2023-04-30T09:45:53;11.13;;;7.80;;
14235;SDS011;7202;50.718;7.072;2023-04-30T09:48:25;6.78;;;5.75;;
14235;SDS011;7202;50.718;7.072;2023-04-30T09:50:55;5.20;;;4.70;;
14235;SDS011;7202;50.718;7.072;2023-04-30T09:53:25;4.60;;;4.05;;
14235;SDS011;7202;50.718;7.072;2023-04-30T09:55:55;4.82;;;4.10;;
14235;SDS011;7202;50.718;7.072;2023-04-30T09:58:27;7.47;;;3.92;;
14235;SDS011;7202;50.718;7.072;2023-04-30T10:00:57;4.55;;;3.78;;
14235;SDS011;7202;50.718;7.072;2023-04-30T10:03:28;3.35;;;3.05;;
14235;SDS011;7202;50.718;7.072;2023-04-30T10:06:00;4.00;;;3.60;;
14235;SDS011;7202;50.718;7.072;2023-04-30T10:08:31;6.05;;;2.60;;
14235;SDS011;7202;50.718;7.072;2023-04-30T10:11:03;3.55;;;1.40;;
14235;SDS011;7202;50.718;7.072;2023-04-30T10:13:34;0.80;;;0.70;;
14235;SDS011;7202;50.718;7.072;2023-04-30T10:16:10;3.75;;;0.90;;
14235;SDS011;7202;50.718;7.072;2023-04-30T10:18:44;1.40;;;0.88;;
14235;SDS011;7202;50.718;7.072;2023-04-30T10:21:18;1.42;;;0.80;;
14235;SDS011;7202;50.718;7.072;2023-04-30T10:23:49;0.70;;;0.70;;
14235;SDS011;7202;50.718;7.072;2023-04-30T10:26:20;2.50;;;1.20;;
14235;SDS011;7202;50.718;7.072;2023-04-30T10:28:50;1.75;;;1.60;;
14235;SDS011;7202;50.718;7.072;2023-04-30T10:31:21;3.55;;;1.73;;
14235;SDS011;7202;50.718;7.072;2023-04-30T10:33:53;1.70;;;1.60;;
14235;SDS011;7202;50.718;7.072;2023-04-30T10:36:44;3.78;;;1.42;;
14235;SDS011;7202;50.718;7.072;2023-04-30T10:39:16;1.27;;;1.13;;
14235;SDS011;7202;50.718;7.072;2023-04-30T10:41:47;1.50;;;1.40;;
14235;SDS011;7202;50.718;7.072;2023-04-30T10:44:20;2.30;;;1.40;;
14235;SDS011;7202;50.718;7.072;2023-04-30T10:46:54;2.08;;;1.60;;
14235;SDS011;7202;50.718;7.072;2023-04-30T10:49:26;3.05;;;1.70;;
14235;SDS011;7202;50.718;7.072;2023-04-30T10:51:57;2.45;;;1.08;;
14235;SDS011;7202;50.718;7.072;2023-04-30T10:54:27;1.77;;;1.30;;
14235;SDS011;7202;50.718;7.072;2023-04-30T10:57:07;2.17;;;1.20;;
14235;SDS011;7202;50.718;7.072;2023-04-30T10:59:41;1.95;;;1.23;;
14235;SDS011;7202;50.718;7.072;2023-04-30T11:02:37;1.42;;;1.30;;
14235;SDS011;7202;50.718;7.072;2023-04-30T11:05:10;1.63;;;1.23;;
14235;SDS011;7202;50.718;7.072;2023-04-30T11:07:48;2.80;;;1.40;;
14235;SDS011;7202;50.718;7.072;2023-04-30T11:10:20;3.83;;;1.50;;
14235;SDS011;7202;50.718;7.072;2023-04-30T11:12:50;3.35;;;1.20;;
14235;SDS011;7202;50.718;7.072;2023-04-30T11:15:20;2.47;;;1.00;;
14235;SDS011;7202;50.718;7.072;2023-04-30T11:17:55;1.30;;;1.20;;
14235;SDS011;7202;50.718;7.072;2023-04-30T11:20:25;1.42;;;1.10;;
14235;SDS011;7202;50.718;7.072;2023-04-30T11:23:08;1.98;;;1.02;;
14235;SDS011;7202;50.718;7.072;2023-04-30T11:25:38;1.83;;;1.20;;
14235;SDS011;7202;50.718;7.072;2023-04-30T11:28:12;0.80;;;0.80;;
14235;SDS011;7202;50.718;7.072;2023-04-30T11:30:49;1.10;;;0.98;;
14235;SDS011;7202;50.718;7.072;2023-04-30T11:33:19;1.73;;;0.93;;
14235;SDS011;7202;50.718;7.072;2023-04-30T11:35:56;1.60;;;1.08;;
14235;SDS011;7202;50.718;7.072;2023-04-30T11:38:27;1.05;;;0.93;;
14235;SDS011;7202;50.718;7.072;2023-04-30T11:40:57;0.90;;;0.73;;
14235;SDS011;7202;50.718;7.072;2023-04-30T11:43:29;1.50;;;1.10;;
14235;SDS011;7202;50.718;7.072;2023-04-30T11:45:59;1.40;;;1.00;;
14235;SDS011;7202;50.718;7.072;2023-04-30T11:48:29;0.90;;;0.90;;
14235;SDS011;7202;50.718;7.072;2023-04-30T11:51:01;1.38;;;0.90;;
14235;SDS011;7202;50.718;7.072;2023-04-30T11:53:33;3.08;;;0.95;;
14235;SDS011;7202;50.718;7.072;2023-04-30T11:56:02;2.10;;;1.08;;
14235;SDS011;7202;50.718;7.072;2023-04-30T11:58:32;0.95;;;0.85;;
14235;SDS011;7202;50.718;7.072;2023-04-30T12:01:03;2.60;;;0.90;;
14235;SDS011;7202;50.718;7.072;2023-04-30T12:03:39;1.05;;;0.95;;
14235;SDS011;7202;50.718;7.072;2023-04-30T12:06:09;0.95;;;0.80;;
14235;SDS011;7202;50.718;7.072;2023-04-30T12:08:41;1.10;;;0.95;;
14235;SDS011;7202;50.718;7.072;2023-04-30T12:11:19;2.83;;;0.98;;
14235;SDS011;7202;50.718;7.072;2023-04-30T12:13:52;0.98;;;0.82;;
14235;SDS011;7202;50.718;7.072;2023-04-30T12:16:22;2.42;;;0.73;;
14235;SDS011;7202;50.718;7.072;2023-04-30T12:18:51;1.67;;;0.88;;
14235;SDS011;7202;50.718;7.072;2023-04-30T12:21:21;0.90;;;0.80;;
14235;SDS011;7202;50.718;7.072;2023-04-30T12:23:51;1.23;;;0.80;;
14235;SDS011;7202;50.718;7.072;2023-04-30T12:26:20;0.63;;;0.63;;
14235;SDS011;7202;50.718;7.072;2023-04-30T12:28:49;0.70;;;0.70;;
14235;SDS011;7202;50.718;7.072;2023-04-30T12:31:19;0.80;;;0.65;;
14235;SDS011;7202;50.718;7.072;2023-04-30T12:33:54;0.70;;;0.70;;
14235;SDS011;7202;50.718;7.072;2023-04-30T12:36:30;0.98;;;0.90;;
14235;SDS011;7202;50.718;7.072;2023-04-30T12:39:06;0.77;;;0.60;;
14235;SDS011;7202;50.718;7.072;2023-04-30T12:41:36;1.35;;;0.80;;
14235;SDS011;7202;50.718;7.072;2023-04-30T12:44:14;1.55;;;0.77;;
14235;SDS011;7202;50.718;7.072;2023-04-30T12:46:44;1.10;;;0.80;;
14235;SDS011;7202;50.718;7.072;2023-04-30T12:49:23;1.48;;;0.60;;
14235;SDS011;7202;50.718;7.072;2023-04-30T12:51:56;1.40;;;0.77;;
14235;SDS011;7202;50.718;7.072;2023-04-30T12:54:29;1.00;;;0.90;;
14235;SDS011;7202;50.718;7.072;2023-04-30T12:57:00;1.10;;;0.77;;
14235;SDS011;7202;50.718;7.072;2023-04-30T12:59:30;1.48;;;0.80;;
14235;SDS011;7202;50.718;7.072;2023-04-30T13:02:06;0.60;;;0.60;;
14235;SDS011;7202;50.718;7.072;2023-04-30T13:04:36;1.08;;;0.70;;
14235;SDS011;7202;50.718;7.072;2023-04-30T13:07:05;0.88;;;0.77;;
14235;SDS011;7202;50.718;7.072;2023-04-30T13:09:36;2.45;;;0.70;;
14235;SDS011;7202;50.718;7.072;2023-04-30T13:12:05;0.65;;;0.65;;
14235;SDS011;7202;50.718;7.072;2023-04-30T13:14:34;1.30;;;0.80;;
14235;SDS011;7202;50.718;7.072;2023-04-30T13:17:03;0.82;;;0.50;;
14235;SDS011;7202;50.718;7.072;2023-04-30T13:19:32;1.15;;;0.68;;
14235;SDS011;7202;50.718;7.072;2023-04-30T13:22:01;1.75;;;0.98;;
14235;SDS011;7202;50.718;7.072;2023-04-30T13:24:30;1.20;;;0.80;;
14235;SDS011;7202;50.718;7.072;2023-04-30T13:26:59;0.60;;;0.60;;
14235;SDS011;7202;50.718;7.072;2023-04-30T13:29:28;0.93;;;0.70;;
14235;SDS011;7202;50.718;7.072;2023-04-30T13:31:57;1.00;;;0.60;;
14235;SDS011;7202;50.718;7.072;2023-04-30T13:34:26;0.55;;;0.55;;
14235;SDS011;7202;50.718;7.072;2023-04-30T13:36:54;0.80;;;0.60;;
14235;SDS011;7202;50.718;7.072;2023-04-30T13:39:23;0.75;;;0.60;;
14235;SDS011;7202;50.718;7.072;2023-04-30T13:41:52;0.82;;;0.60;;
14235;SDS011;7202;50.718;7.072;2023-04-30T13:44:22;1.38;;;1.10;;
14235;SDS011;7202;50.718;7.072;2023-04-30T13:46:50;0.95;;;0.65;;
14235;SDS011;7202;50.718;7.072;2023-04-30T13:49:19;1.15;;;0.85;;
14235;SDS011;7202;50.718;7.072;2023-04-30T13:51:48;0.80;;;0.80;;
14235;SDS011;7202;50.718;7.072;2023-04-30T13:54:16;0.95;;;0.80;;
14235;SDS011;7202;50.718;7.072;2023-04-30T13:56:45;0.73;;;0.70;;
14235;SDS011;7202;50.718;7.072;2023-04-30T13:59:14;1.25;;;0.75;;
14235;SDS011;7202;50.718;7.072;2023-04-30T14:01:44;1.20;;;0.70;;
14235;SDS011;7202;50.718;7.072;2023-04-30T14:04:13;1.00;;;0.70;;
14235;SDS011;7202;50.718;7.072;2023-04-30T14:06:41;0.85;;;0.80;;
14235;SDS011;7202;50.718;7.072;2023-04-30T14:09:11;0.82;;;0.75;;
14235;SDS011;7202;50.718;7.072;2023-04-30T14:11:40;0.80;;;0.80;;
14235;SDS011;7202;50.718;7.072;2023-04-30T14:14:09;0.82;;;0.68;;
14235;SDS011;7202;50.718;7.072;2023-04-30T14:16:37;0.75;;;0.75;;
14235;SDS011;7202;50.718;7.072;2023-04-30T14:19:07;0.90;;;0.90;;
14235;SDS011;7202;50.718;7.072;2023-04-30T14:21:36;1.42;;;0.90;;
14235;SDS011;7202;50.718;7.072;2023-04-30T14:24:05;0.80;;;0.70;;
14235;SDS011;7202;50.718;7.072;2023-04-30T14:26:33;1.25;;;0.60;;
14235;SDS011;7202;50.718;7.072;2023-04-30T14:29:02;1.98;;;0.93;;
14235;SDS011;7202;50.718;7.072;2023-04-30T14:31:31;0.73;;;0.70;;
14235;SDS011;7202;50.718;7.072;2023-04-30T14:34:00;1.73;;;0.63;;
14235;SDS011;7202;50.718;7.072;2023-04-30T14:36:30;0.50;;;0.50;;
14235;SDS011;7202;50.718;7.072;2023-04-30T14:38:58;0.60;;;0.50;;
14235;SDS011;7202;50.718;7.072;2023-04-30T14:41:32;0.60;;;0.50;;
14235;SDS011;7202;50.718;7.072;2023-04-30T14:44:02;1.58;;;0.70;;
14235;SDS011;7202;50.718;7.072;2023-04-30T14:46:31;0.70;;;0.60;;
14235;SDS011;7202;50.718;7.072;2023-04-30T14:49:00;0.95;;;0.60;;
14235;SDS011;7202;50.718;7.072;2023-04-30T14:51:31;0.60;;;0.60;;
14235;SDS011;7202;50.718;7.072;2023-04-30T14:54:00;0.65;;;0.50;;
14235;SDS011;7202;50.718;7.072;2023-04-30T14:56:29;2.65;;;0.80;;
14235;SDS011;7202;50.718;7.072;2023-04-30T14:58:57;0.52;;;0.52;;
14235;SDS011;7202;50.718;7.072;2023-04-30T15:01:26;1.00;;;0.70;;